Time;durP1;ratioP1;P1;durP2;ratioP2;P2;SDS_P1;SDS_P2;PMS_P1;PMS_P2;Temp;Humidity;BMP_temperature;BMP_pressure;BME280_temperature;BME280_humidity;BME280_pressure;Samples;Min_cycle;Max_cycle;Signal;HPM_P1;HPM_P2
2021/05/08 00:00:13;;;;;;;0.30;0.20;;;;;;;17.56;46.41;100771.34;5055705;28;19921;-80
2021/05/08 00:03:00;;;;;;;3.78;0.32;;;;;;;17.38;43.42;100765.44;5063610;28;20290;-81
2021/05/08 00:06:06;;;;;;;4.07;0.40;;;;;;;17.47;46.60;100779.81;5063251;28;20043;-80
2021/05/08 00:08:52;;;;;;;0.93;0.22;;;;;;;17.42;45.48;100771.84;5063809;28;20064;-79
2021/05/08 00:11:37;;;;;;;0.40;0.15;;;;;;;17.30;42.45;100783.75;5063668;28;20048;-79
2021/05/08 00:14:26;;;;;;;2.58;0.25;;;;;;;17.43;44.31;100784.41;5069212;28;20064;-79
2021/05/08 00:17:11;;;;;;;1.08;0.30;;;;;;;17.37;43.85;100786.63;5066452;28;20040;-79
2021/05/08 00:23:00;;;;;;;0.40;0.20;;;;;;;17.46;44.90;100778.22;5067757;28;19913;-80
2021/05/08 00:25:46;;;;;;;2.03;0.43;;;;;;;17.53;44.82;100781.91;5065152;28;20040;-79
2021/05/08 00:28:30;;;;;;;;;;;;;;;17.41;42.93;100782.03;5062077;28;20055;-77
2021/05/08 00:31:15;;;;;;;0.45;0.30;;;;;;;17.50;43.45;100785.38;5064087;28;19913;-79
2021/05/08 00:34:19;;;;;;;;;;;;;;;17.46;43.05;100790.00;5060564;28;20044;-79
2021/05/08 00:37:04;;;;;;;2.55;0.60;;;;;;;17.34;43.16;100790.13;5057129;28;19912;-79
2021/05/08 00:39:50;;;;;;;1.35;0.38;;;;;;;17.38;44.35;100792.94;5059107;28;20051;-79
2021/05/08 00:42:35;;;;;;;1.40;0.20;;;;;;;17.42;42.99;100793.84;5058475;28;20052;-79
2021/05/08 00:45:20;;;;;;;2.78;0.40;;;;;;;17.48;45.60;100801.44;5059928;28;20048;-79
2021/05/08 00:48:13;;;;;;;0.10;0.10;;;;;;;17.44;45.09;100797.81;5063885;28;20040;-79
2021/05/08 00:50:59;;;;;;;0.75;0.30;;;;;;;17.32;42.01;100808.91;5060342;28;20515;-80
2021/05/08 00:54:02;;;;;;;;;;;;;;;17.43;45.59;100811.91;5059670;28;20044;-79
2021/05/08 00:56:48;;;;;;;3.25;0.40;;;;;;;17.29;44.38;100822.59;5062133;28;19912;-79
2021/05/08 00:59:35;;;;;;;0.50;0.20;;;;;;;17.38;45.37;100825.94;5046487;28;20044;-79
2021/05/08 01:02:21;;;;;;;0.73;0.22;;;;;;;17.14;42.69;100826.16;5060755;28;20047;-80
2021/05/08 01:05:07;;;;;;;;;;;;;;;17.15;43.98;100825.00;5058451;28;20420;-79
2021/05/08 01:07:53;;;;;;;1.08;0.10;;;;;;;17.16;40.96;100821.91;5057351;28;19917;-79
2021/05/08 01:10:39;;;;;;;1.00;0.30;;;;;;;17.18;44.64;100827.03;5055962;28;20527;-79
2021/05/08 01:13:26;;;;;;;3.03;0.43;;;;;;;17.22;42.97;100822.44;5052459;28;20048;-79
2021/05/08 01:16:11;;;;;;;1.20;0.35;;;;;;;17.09;42.32;100825.28;5044366;28;20040;-79
2021/05/08 01:18:56;;;;;;;2.63;0.40;;;;;;;17.18;42.77;100838.03;5056444;28;20052;-78
2021/05/08 01:21:45;;;;;;;0.30;0.20;;;;;;;17.07;42.21;100835.81;5060162;28;20059;-79
2021/05/08 01:24:50;;;;;;;0.95;0.35;;;;;;;16.94;42.20;100836.28;5056688;28;20048;-78
2021/05/08 01:27:42;;;;;;;0.45;0.30;;;;;;;17.05;43.90;100846.38;5060389;28;20036;-79
2021/05/08 01:30:33;;;;;;;1.38;0.68;;;;;;;17.10;43.85;100843.38;5064831;28;20044;-79
2021/05/08 01:33:21;;;;;;;6.80;0.45;;;;;;;17.01;42.77;100850.19;5056197;28;20048;-78
2021/05/08 01:36:06;;;;;;;;;;;;;;;17.04;43.48;100866.75;5062702;28;20052;-79
2021/05/08 01:38:54;;;;;;;1.85;1.00;;;;;;;17.08;42.79;100881.38;5060862;28;20319;-79
2021/05/08 01:41:39;;;;;;;0.20;0.17;;;;;;;17.00;43.70;100881.56;5059594;28;20406;-79
2021/05/08 01:44:43;;;;;;;1.27;0.20;;;;;;;17.14;43.52;100881.91;5063099;28;20416;-79
2021/05/08 01:47:29;;;;;;;0.73;0.25;;;;;;;17.01;40.80;100864.75;5066414;28;20422;-79
2021/05/08 01:50:17;;;;;;;5.10;0.52;;;;;;;17.02;41.40;100880.03;5062554;28;20082;-79
2021/05/08 01:53:02;;;;;;;0.47;0.30;;;;;;;16.81;42.65;100882.25;5046520;28;20072;-79
2021/05/08 01:56:07;;;;;;;1.27;0.32;;;;;;;17.04;42.37;100897.00;5071890;28;20036;-78
2021/05/08 01:58:52;;;;;;;1.08;0.10;;;;;;;17.05;44.12;100887.59;5061655;28;20053;-79
2021/05/08 02:01:37;;;;;;;0.98;0.20;;;;;;;17.07;41.95;100903.72;5048651;28;20069;-78
2021/05/08 02:04:22;;;;;;;2.17;0.52;;;;;;;17.14;44.03;100909.41;5043230;28;20056;-79
2021/05/08 02:07:08;;;;;;;0.95;0.32;;;;;;;16.98;41.50;100917.63;5063082;28;20044;-78
2021/05/08 02:12:58;;;;;;;0.47;0.20;;;;;;;16.86;42.10;100920.47;5054921;28;19920;-78
2021/05/08 02:15:43;;;;;;;1.35;0.30;;;;;;;16.82;43.85;100908.56;5051323;28;20044;-79
2021/05/08 02:18:30;;;;;;;0.70;0.28;;;;;;;16.77;42.06;100905.28;5057500;28;20052;-78
2021/05/08 02:21:15;;;;;;;1.60;0.13;;;;;;;16.78;43.55;100929.66;5055069;28;20048;-79
2021/05/08 02:24:05;;;;;;;1.17;0.20;;;;;;;16.70;40.91;100932.56;5062433;28;20416;-79
2021/05/08 02:29:54;;;;;;;0.60;0.60;;;;;;;16.76;41.88;100937.44;5056335;28;20059;-79
2021/05/08 02:32:39;;;;;;;;;;;;;;;16.78;42.05;100945.34;5059752;28;20044;-78
2021/05/08 02:35:26;;;;;;;1.13;0.28;;;;;;;16.73;42.41;100946.38;5055260;28;20381;-77
2021/05/08 02:38:11;;;;;;;0.50;0.30;;;;;;;16.77;42.30;100939.03;5061172;28;20048;-78
2021/05/08 02:40:55;;;;;;;;;;;;;;;16.76;44.66;100940.19;5064843;28;20040;-78
2021/05/08 02:43:42;;;;;;;2.35;0.40;;;;;;;16.70;42.28;100944.34;5072869;28;19912;-78
2021/05/08 02:46:31;;;;;;;2.50;0.20;;;;;;;16.75;42.55;100957.84;5064675;28;20044;-78
2021/05/08 02:49:17;;;;;;;0.10;0.10;;;;;;;16.66;41.67;100960.72;5060967;28;20048;-78
2021/05/08 02:52:02;;;;;;;;;;;;;;;16.64;41.27;100976.75;5057351;28;20048;-77
2021/05/08 02:54:47;;;;;;;1.27;0.32;;;;;;;16.68;44.04;100963.91;5056973;28;19912;-78
2021/05/08 02:57:32;;;;;;;;;;;;;;;16.66;41.75;100968.94;5059579;28;20036;-77
2021/05/08 03:00:18;;;;;;;;;;;;;;;16.51;41.75;100974.34;5059724;28;20384;-78
2021/05/08 03:03:03;;;;;;;0.63;0.20;;;;;;;16.62;43.43;100975.50;5060328;28;19916;-78
2021/05/08 03:06:07;;;;;;;0.20;0.20;;;;;;;16.50;40.64;100970.03;5059328;28;20056;-78
2021/05/08 03:09:30;;;;;;;0.45;0.30;;;;;;;16.62;42.21;100976.28;5059833;28;20045;-78
2021/05/08 03:12:36;;;;;;;0.32;0.30;;;;;;;16.51;42.31;100977.09;5060225;28;20043;-78
2021/05/08 03:15:23;;;;;;;0.30;0.20;;;;;;;16.72;43.22;100991.47;5061529;28;20055;-78
2021/05/08 03:18:09;;;;;;;0.15;0.15;;;;;;;16.76;43.73;100989.63;5064348;28;20048;-78
2021/05/08 03:20:55;;;;;;;2.50;0.30;;;;;;;16.60;42.16;100997.81;5075313;28;20048;-78
2021/05/08 03:24:00;;;;;;;0.10;0.10;;;;;;;16.66;42.98;100995.59;5073974;28;20048;-78
2021/05/08 03:27:03;;;;;;;0.43;0.20;;;;;;;16.51;41.15;100996.31;5066139;28;20044;-78
2021/05/08 03:29:49;;;;;;;0.28;0.20;;;;;;;16.54;41.81;101001.13;5060437;28;20047;-78
2021/05/08 03:32:36;;;;;;;0.98;0.20;;;;;;;16.50;42.92;101006.53;5077588;28;20040;-79
2021/05/08 03:35:21;;;;;;;1.45;0.20;;;;;;;16.59;41.74;101014.66;5061974;28;20541;-78
2021/05/08 03:38:08;;;;;;;1.08;0.20;;;;;;;16.40;42.81;101022.69;5056353;28;20060;-79
2021/05/08 03:40:53;;;;;;;;;;;;;;;16.43;41.77;101030.22;5063037;28;20044;-78
2021/05/08 03:43:37;;;;;;;0.45;0.30;;;;;;;16.48;42.41;101025.28;5061596;28;19913;-78
2021/05/08 03:46:23;;;;;;;1.75;0.20;;;;;;;16.40;40.83;101020.72;5062220;28;20523;-78
2021/05/08 03:49:08;;;;;;;3.10;0.22;;;;;;;16.35;40.18;101031.97;5062666;28;20056;-78
2021/05/08 03:52:01;;;;;;;3.60;0.20;;;;;;;16.41;41.25;101036.03;5063033;28;20044;-78
2021/05/08 03:54:46;;;;;;;1.90;0.20;;;;;;;16.27;41.33;101028.19;5060232;28;20405;-78
2021/05/08 04:00:36;;;;;;;0.10;0.10;;;;;;;16.19;41.79;101036.53;5055042;28;20043;-78
2021/05/08 04:03:21;;;;;;;0.10;0.10;;;;;;;16.12;41.06;101028.88;5058407;28;20052;-78
2021/05/08 04:06:25;;;;;;;0.40;0.20;;;;;;;16.15;40.81;101041.13;5055519;28;20044;-78
2021/05/08 04:09:10;;;;;;;0.50;0.20;;;;;;;16.16;41.84;101023.50;5057977;28;20047;-78
2021/05/08 04:18:02;;;;;;;1.40;0.40;;;;;;;16.12;40.96;101053.59;5057452;28;20067;-77
2021/05/08 04:20:48;;;;;;;0.57;0.22;;;;;;;16.09;40.91;101062.50;5064851;28;20048;-78
2021/05/08 04:23:32;;;;;;;;;;;;;;;16.04;39.73;101065.47;5064827;28;20452;-79
2021/05/08 04:26:35;;;;;;;0.93;0.22;;;;;;;16.09;40.26;101078.97;5059949;28;19916;-78
2021/05/08 04:29:39;;;;;;;1.98;0.20;;;;;;;15.95;39.76;101075.75;5056812;28;20048;-78
2021/05/08 04:32:24;;;;;;;;;;;;;;;16.01;40.78;101071.63;5055611;28;20043;-78
2021/05/08 04:38:13;;;;;;;0.15;0.15;;;;;;;15.92;41.08;101078.38;5053249;28;20445;-78
2021/05/08 04:40:58;;;;;;;0.45;0.25;;;;;;;15.86;40.98;101080.53;5048975;28;20052;-77
2021/05/08 04:43:43;;;;;;;0.80;0.38;;;;;;;15.96;40.03;101085.59;5056858;28;20298;-78
2021/05/08 04:46:28;;;;;;;0.20;0.20;;;;;;;15.98;41.64;101094.28;5048700;28;20048;-78
2021/05/08 04:55:21;;;;;;;0.17;0.17;;;;;;;15.78;40.80;101100.66;5052292;28;20052;-78
2021/05/08 04:58:25;;;;;;;3.83;0.20;;;;;;;15.83;41.87;101097.69;5056677;28;20044;-79
2021/05/08 05:01:10;;;;;;;6.93;0.30;;;;;;;15.70;40.33;101104.28;5053604;28;20044;-78
2021/05/08 05:07:18;;;;;;;2.20;0.35;;;;;;;16.00;41.48;101108.44;5054349;28;20044;-78
2021/05/08 05:10:02;;;;;;;0.10;0.10;;;;;;;16.17;41.76;101119.19;5056197;28;20064;-78
2021/05/08 05:12:48;;;;;;;;;;;;;;;16.23;42.50;101123.31;5063843;28;20044;-79
2021/05/08 05:15:33;;;;;;;0.15;0.10;;;;;;;16.34;40.60;101131.09;5065854;28;19913;-79
2021/05/08 05:18:19;;;;;;;0.63;0.20;;;;;;;16.34;38.71;101117.38;5058354;28;20052;-79
2021/05/08 05:21:04;;;;;;;1.00;0.22;;;;;;;16.41;40.14;101128.56;5068127;28;20067;-79
2021/05/08 05:23:49;;;;;;;;;;;;;;;16.39;39.81;101134.41;5066505;28;20052;-78
2021/05/08 05:26:52;;;;;;;0.88;0.30;;;;;;;16.44;40.80;101138.88;5060041;28;20369;-78
2021/05/08 05:29:37;;;;;;;;;;;;;;;16.50;42.20;101134.75;5061732;28;20406;-78
2021/05/08 05:32:22;;;;;;;3.25;0.32;;;;;;;16.72;42.02;101139.78;5060651;28;19913;-79
2021/05/08 05:35:07;;;;;;;;;;;;;;;16.71;37.60;101143.66;5054288;28;20048;-78
2021/05/08 05:37:58;;;;;;;0.47;0.20;;;;;;;16.88;41.49;101145.34;5060939;28;19913;-78
2021/05/08 05:40:44;;;;;;;0.20;0.20;;;;;;;16.83;39.33;101143.66;5059273;28;20048;-78
2021/05/08 05:43:29;;;;;;;0.82;0.38;;;;;;;16.95;41.30;101154.63;5058519;28;20048;-78
2021/05/08 05:46:14;;;;;;;7.05;0.65;;;;;;;17.06;38.82;101149.44;5062011;28;20056;-79
2021/05/08 05:49:17;;;;;;;;;;;;;;;17.02;38.32;101159.50;5063539;28;20052;-79
2021/05/08 05:52:02;;;;;;;4.40;0.85;;;;;;;17.05;39.19;101154.13;5067458;22;19925;-80
2021/05/08 05:55:06;;;;;;;;;;;;;;;16.98;38.12;101161.34;5036652;28;20052;-81
2021/05/08 05:57:53;;;;;;;1.85;0.40;;;;;;;17.04;38.00;101168.22;5039493;28;19917;-80
2021/05/08 06:00:39;;;;;;;6.50;1.77;;;;;;;17.17;37.47;101174.50;5037134;28;20045;-81
2021/05/08 06:03:25;;;;;;;1.30;0.47;;;;;;;17.12;37.40;101177.47;5035577;28;20410;-78
2021/05/08 06:06:10;;;;;;;3.10;0.47;;;;;;;17.37;37.12;101181.75;5021512;28;20521;-78
2021/05/08 06:08:55;;;;;;;2.30;0.73;;;;;;;17.43;39.39;101185.81;5033691;28;20068;-80
2021/05/08 06:11:40;;;;;;;2.15;0.30;;;;;;;17.32;35.64;101176.50;5034473;28;20456;-81
2021/05/08 06:14:26;;;;;;;;;;;;;;;17.41;37.64;101182.66;5031694;28;20044;-81
2021/05/08 06:17:10;;;;;;;0.85;0.20;;;;;;;17.41;38.05;101175.19;5037075;28;19921;-80
2021/05/08 06:19:56;;;;;;;0.15;0.15;;;;;;;17.40;35.00;101181.03;5047211;28;20052;-79
2021/05/08 06:22:40;;;;;;;1.77;0.40;;;;;;;17.49;37.56;101189.94;5039842;28;20512;-80
2021/05/08 06:25:44;;;;;;;1.30;0.40;;;;;;;17.43;34.94;101183.06;5037809;28;20528;-79
2021/05/08 06:28:29;;;;;;;2.95;0.30;;;;;;;17.39;34.63;101182.97;5019807;28;20048;-79
2021/05/08 06:31:14;;;;;;;;;;;;;;;17.58;37.47;101193.31;5035900;28;20056;-78
2021/05/08 06:34:17;;;;;;;2.60;0.40;;;;;;;17.52;35.72;101184.53;5027792;28;19913;-78
2021/05/08 06:37:02;;;;;;;1.73;0.38;;;;;;;17.65;36.87;101190.81;5032048;28;20128;-80
2021/05/08 06:39:47;;;;;;;3.58;0.95;;;;;;;17.62;33.70;101191.53;5035061;28;20048;-77
2021/05/08 06:42:33;;;;;;;2.42;0.30;;;;;;;17.79;35.64;101196.69;5041037;28;20044;-77
2021/05/08 06:45:18;;;;;;;0.45;0.22;;;;;;;18.22;32.17;101195.06;5040559;28;20048;-80
2021/05/08 06:48:04;;;;;;;3.35;1.05;;;;;;;18.19;32.55;101190.25;5023758;28;20421;-79
2021/05/08 06:50:49;;;;;;;0.68;0.20;;;;;;;18.25;30.91;101195.16;5036526;28;20068;-79
2021/05/08 06:53:35;;;;;;;0.55;0.20;;;;;;;18.47;31.42;101196.47;5040976;28;20052;-79
2021/05/08 06:56:20;;;;;;;2.10;0.43;;;;;;;18.78;31.21;101188.22;5042003;28;20413;-79
2021/05/08 06:59:05;;;;;;;1.02;0.10;;;;;;;19.08;31.00;101204.22;5037149;28;20044;-80
2021/05/08 07:04:54;;;;;;;9.65;1.27;;;;;;;19.58;31.28;101200.56;5038758;28;19921;-78
2021/05/08 07:07:39;;;;;;;;;;;;;;;19.87;30.13;101208.22;5037334;28;20044;-79
2021/05/08 07:10:47;;;;;;;2.15;0.32;;;;;;;20.76;29.10;101216.09;5025596;28;19913;-80
2021/05/08 07:13:32;;;;;;;0.30;0.30;;;;;;;21.55;27.18;101213.22;5041013;28;20054;-80
2021/05/08 07:16:17;;;;;;;;;;;;;;;22.57;24.49;101227.31;5034659;28;20062;-80
2021/05/08 07:19:02;;;;;;;2.03;0.30;;;;;;;22.57;24.89;101240.38;5043258;28;20272;-82
2021/05/08 07:21:47;;;;;;;2.33;0.93;;;;;;;21.20;24.88;101221.88;5016538;28;20045;-80
2021/05/08 07:24:32;;;;;;;0.30;0.30;;;;;;;22.38;22.74;101229.53;5034219;28;20048;-83
2021/05/08 07:27:20;;;;;;;2.15;0.20;;;;;;;23.58;21.41;101227.56;5025859;28;20052;-82
2021/05/08 07:30:06;;;;;;;0.80;0.30;;;;;;;23.62;21.15;101235.91;5036056;28;20052;-81
2021/05/08 07:32:51;;;;;;;2.90;0.30;;;;;;;23.75;21.91;101232.38;5034485;28;20048;-82
2021/05/08 07:35:40;;;;;;;18.83;2.17;;;;;;;21.78;23.24;101229.72;5017735;28;20053;-79
2021/05/08 07:38:25;;;;;;;2.03;1.00;;;;;;;20.19;24.97;101224.56;5042237;28;20413;-82
2021/05/08 07:41:10;;;;;;;;;;;;;;;20.70;24.26;101252.69;5041996;28;20523;-83
2021/05/08 07:43:54;;;;;;;3.03;0.65;;;;;;;22.10;23.34;101249.44;5060006;28;19916;-83
2021/05/08 07:46:39;;;;;;;;;;;;;;;23.56;20.89;101260.50;5037902;28;20040;-83
2021/05/08 07:49:24;;;;;;;0.50;0.20;;;;;;;24.40;20.13;101261.91;5053524;28;19913;-83
2021/05/08 07:52:09;;;;;;;0.75;0.20;;;;;;;24.95;19.64;101259.53;5020854;28;20068;-83
2021/05/08 07:54:54;;;;;;;0.90;0.30;;;;;;;25.81;19.07;101260.88;5048320;28;20048;-83
2021/05/08 07:57:39;;;;;;;;;;;;;;;26.51;18.14;101253.28;5026593;28;20572;-82
2021/05/08 08:00:24;;;;;;;0.85;0.20;;;;;;;21.82;22.55;101249.91;5039922;28;19913;-83
2021/05/08 08:03:10;;;;;;;1.65;0.20;;;;;;;22.37;22.85;101258.41;5038908;28;20516;-83
2021/05/08 08:05:54;;;;;;;2.78;0.20;;;;;;;24.10;20.34;101245.56;5042630;28;20052;-82
2021/05/08 08:08:39;;;;;;;7.50;0.30;;;;;;;25.10;18.30;101252.75;5049816;28;20409;-83
2021/05/08 08:11:24;;;;;;;1.10;0.30;;;;;;;22.16;22.00;101257.03;5051787;28;20052;-83
2021/05/08 08:14:09;;;;;;;0.40;0.32;;;;;;;22.61;21.76;101264.19;5019493;28;20052;-83
2021/05/08 08:17:13;;;;;;;0.50;0.20;;;;;;;24.57;19.47;101263.13;5012614;28;20410;-82
2021/05/08 08:19:58;;;;;;;33.15;1.42;;;;;;;23.78;20.23;101264.91;5026408;28;20056;-82
2021/05/08 08:22:45;;;;;;;4.55;0.40;;;;;;;23.11;20.89;101263.78;5052985;28;20043;-83
2021/05/08 08:25:29;;;;;;;1.45;0.45;;;;;;;24.80;20.52;101265.47;5045307;28;20048;-82
2021/05/08 08:28:14;;;;;;;4.82;1.38;;;;;;;24.92;19.46;101276.25;5042880;28;20044;-83
2021/05/08 08:30:59;;;;;;;5.97;0.60;;;;;;;22.90;19.38;101276.34;5050273;28;20057;-81
2021/05/08 08:33:44;;;;;;;0.35;0.20;;;;;;;23.08;19.98;101275.66;5038740;28;20424;-83
2021/05/08 08:36:29;;;;;;;9.20;0.45;;;;;;;22.17;21.47;101269.72;5056638;28;20055;-84
2021/05/08 08:39:40;;;;;;;0.68;0.30;;;;;;;22.38;21.92;101271.91;5029896;28;20044;-83
2021/05/08 08:42:25;;;;;;;1.77;0.60;;;;;;;23.59;19.20;101284.69;5050438;28;20040;-84
2021/05/08 08:45:13;;;;;;;0.40;0.30;;;;;;;24.35;19.55;101284.53;5039157;28;20052;-83
2021/05/08 08:47:59;;;;;;;0.50;0.30;;;;;;;24.48;19.24;101284.97;5039191;28;20056;-83
2021/05/08 08:50:48;;;;;;;0.65;0.20;;;;;;;27.60;15.54;101279.31;5038582;28;20056;-82
2021/05/08 08:53:58;;;;;;;0.80;0.20;;;;;;;26.96;17.05;101290.38;5039011;28;20040;-83
2021/05/08 08:56:47;;;;;;;2.67;0.30;;;;;;;29.07;14.90;101292.72;5039053;28;20044;-82
2021/05/08 08:59:32;;;;;;;0.45;0.20;;;;;;;26.19;17.85;101297.28;5038849;28;20060;-82
2021/05/08 09:02:17;;;;;;;1.48;0.30;;;;;;;26.25;16.21;101296.50;5034386;28;20052;-82
2021/05/08 09:05:13;;;;;;;2.20;0.20;;;;;;;27.51;15.33;101303.41;5038085;28;20413;-82
2021/05/08 09:08:01;;;;;;;0.57;0.30;;;;;;;27.81;14.98;101302.63;5038977;28;20041;-83
2021/05/08 09:11:17;;;;;;;2.50;0.52;;;;;;;27.96;15.08;101302.03;5038163;28;20064;-82
2021/05/08 09:14:20;;;;;;;;;;;;;;;25.22;17.44;101298.06;5045592;28;20044;-83
2021/05/08 09:17:10;;;;;;;0.52;0.50;;;;;;;25.58;16.52;101301.56;5057298;28;19924;-81
2021/05/08 09:20:19;;;;;;;0.73;0.30;;;;;;;28.43;14.70;101304.97;5015614;28;20049;-81
2021/05/08 09:23:24;;;;;;;0.38;0.20;;;;;;;25.64;17.26;101306.34;5013298;28;20053;-80
2021/05/08 09:26:11;;;;;;;2.05;0.40;;;;;;;26.55;16.41;101309.03;5038061;28;20052;-80
2021/05/08 09:29:15;;;;;;;5.75;0.30;;;;;;;30.26;13.29;101311.13;5030424;28;20057;-82
2021/05/08 09:32:00;;;;;;;1.67;0.38;;;;;;;29.66;14.57;101293.56;5045327;28;20702;-83
2021/05/08 09:37:51;;;;;;;0.80;0.30;;;;;;;29.68;14.29;101296.75;5026171;28;20090;-82
2021/05/08 09:40:38;;;;;;;1.17;0.30;;;;;;;27.28;15.22;101292.06;5040830;28;20048;-82
2021/05/08 09:43:23;;;;;;;0.47;0.20;;;;;;;27.23;15.34;101285.69;5039070;28;20040;-83
2021/05/08 09:46:22;;;;;;;3.45;0.77;;;;;;;29.36;14.79;101293.78;5012824;28;20069;-83
2021/05/08 09:49:25;;;;;;;1.63;0.30;;;;;;;30.75;13.49;101299.94;5034799;28;20048;-82
2021/05/08 09:52:10;;;;;;;3.05;0.17;;;;;;;28.95;14.42;101293.34;5039255;28;20508;-82
2021/05/08 09:55:03;;;;;;;0.50;0.20;;;;;;;29.53;13.58;101297.47;5008269;28;20045;-82
2021/05/08 09:58:05;;;;;;;0.32;0.22;;;;;;;30.82;12.90;101297.75;5045967;28;20045;-82
2021/05/08 10:01:17;;;;;;;3.80;0.57;;;;;;;29.07;15.44;101290.72;5037417;28;20433;-82
2021/05/08 10:07:14;;;;;;;2.85;0.30;;;;;;;26.26;18.10;101286.13;5042713;28;20045;-82
2021/05/08 10:10:00;;;;;;;4.00;0.30;;;;;;;29.52;14.61;101298.69;5044011;28;20048;-81
2021/05/08 10:12:48;;;;;;;1.33;0.40;;;;;;;29.72;13.80;101289.03;5035872;28;20044;-82
2021/05/08 10:15:35;;;;;;;1.02;0.40;;;;;;;30.40;14.22;101288.34;5035276;28;20048;-81
2021/05/08 10:18:20;;;;;;;3.08;0.40;;;;;;;23.84;19.49;101279.22;5044214;28;20048;-81
2021/05/08 10:21:07;;;;;;;2.88;0.70;;;;;;;24.05;19.92;101292.38;5039296;28;20049;-80
2021/05/08 10:24:11;;;;;;;1.20;0.40;;;;;;;23.51;20.14;101293.38;5035208;28;20040;-82
2021/05/08 10:27:15;;;;;;;3.88;0.60;;;;;;;26.50;17.49;101289.94;5038199;28;20053;-81
2021/05/08 10:30:03;;;;;;;3.72;0.45;;;;;;;31.23;12.55;101302.72;5041181;28;20064;-82
2021/05/08 10:33:11;;;;;;;1.25;0.25;;;;;;;32.14;11.54;101304.13;5036270;28;20048;-82
2021/05/08 10:35:57;;;;;;;0.30;0.20;;;;;;;32.02;11.13;101307.69;5056551;28;20044;-82
2021/05/08 10:39:05;;;;;;;1.17;0.30;;;;;;;27.28;15.13;101280.88;5061402;28;20520;-81
2021/05/08 10:42:02;;;;;;;3.70;0.20;;;;;;;35.01;10.44;101309.66;5048934;28;20044;-81
2021/05/08 10:44:47;;;;;;;1.27;0.20;;;;;;;32.61;11.42;101300.63;5056832;28;20056;-81
2021/05/08 10:48:02;;;;;;;1.23;0.17;;;;;;;29.36;15.33;101293.78;5061101;28;20044;-81
2021/05/08 10:50:55;;;;;;;0.90;0.38;;;;;;;32.45;11.88;101297.94;5060622;28;20508;-81
2021/05/08 10:53:45;;;;;;;5.30;0.93;;;;;;;33.50;10.70;101284.22;5061097;28;20051;-82
2021/05/08 10:56:31;;;;;;;0.68;0.20;;;;;;;30.80;13.52;101274.13;5061172;28;20056;-81
2021/05/08 10:59:17;;;;;;;1.70;0.45;;;;;;;25.17;17.82;101273.41;5045079;28;20048;-81
2021/05/08 11:02:02;;;;;;;0.52;0.40;;;;;;;26.06;16.86;101260.72;5057087;28;20048;-83
2021/05/08 11:05:22;;;;;;;1.00;0.20;;;;;;;30.77;14.19;101275.03;5054240;28;20408;-83
2021/05/08 11:08:25;;;;;;;2.63;0.30;;;;;;;32.51;11.97;101277.16;5060866;28;20048;-83
2021/05/08 11:11:50;;;;;;;0.50;0.20;;;;;;;31.05;12.86;101267.88;5054666;28;20056;-85
2021/05/08 11:14:54;;;;;;;1.10;0.32;;;;;;;30.23;13.90;101264.28;4960222;28;20218;-81
2021/05/08 11:18:02;;;;;;;2.60;0.25;;;;;;;27.50;16.82;101263.47;5020873;28;20398;-82
2021/05/08 11:20:47;;;;;;;1.15;0.38;;;;;;;33.03;13.02;101261.72;5005717;28;20516;-83
2021/05/08 11:23:58;;;;;;;0.57;0.30;;;;;;;30.05;15.53;101263.94;5020689;28;20053;-81
2021/05/08 11:26:45;;;;;;;8.50;0.40;;;;;;;33.41;13.39;101264.41;5020562;28;20060;-82
2021/05/08 11:29:33;;;;;;;1.40;0.35;;;;;;;35.15;11.09;101270.22;5035109;28;20048;-82
2021/05/08 11:32:18;;;;;;;5.18;0.32;;;;;;;38.50;9.44;101292.44;5035663;28;20052;-82
2021/05/08 11:35:25;;;;;;;3.53;0.40;;;;;;;38.08;9.46;101285.06;5040259;28;20044;-81
2021/05/08 11:38:21;;;;;;;2.05;0.30;;;;;;;37.46;9.52;101287.28;5035634;28;20056;-82
2021/05/08 11:41:22;;;;;;;2.17;0.50;;;;;;;35.28;11.25;101266.50;5038819;28;20060;-82
2021/05/08 11:50:27;;;;;;;0.77;0.30;;;;;;;31.00;14.41;101252.34;5039896;28;20057;-82
2021/05/08 11:56:48;;;;;;;1.48;0.50;;;;;;;34.81;11.23;101264.88;5016514;28;20044;-88
2021/05/08 11:59:34;;;;;;;13.75;0.63;;;;;;;35.87;10.86;101276.28;5034995;28;20048;-87
2021/05/08 12:02:24;;;;;;;2.13;0.50;;;;;;;35.52;10.22;101256.84;5033428;28;20049;-87
2021/05/08 12:08:18;;;;;;;2.20;0.85;;;;;;;37.16;9.58;101258.88;5040106;28;20516;-87
2021/05/08 12:11:02;;;;;;;1.10;0.60;;;;;;;36.67;10.15;101250.91;5040376;28;20048;-88
2021/05/08 12:13:48;;;;;;;3.92;0.50;;;;;;;38.44;8.91;101241.19;5034396;28;20048;-89
2021/05/08 12:16:51;;;;;;;0.47;0.40;;;;;;;34.31;10.83;101232.28;5035607;28;20151;-89
2021/05/08 12:19:38;;;;;;;3.83;0.40;;;;;;;36.72;10.49;101238.91;5049941;28;20056;-88
2021/05/08 12:22:23;;;;;;;9.43;0.93;;;;;;;36.85;10.22;101228.06;5052236;28;20504;-89
2021/05/08 12:25:21;;;;;;;4.10;0.40;;;;;;;41.19;7.09;101223.72;5036402;28;20056;-89
2021/05/08 12:31:24;;;;;;;2.47;0.40;;;;;;;36.49;10.50;101219.03;5033697;28;20064;-90
2021/05/08 12:34:12;;;;;;;5.07;0.50;;;;;;;36.31;11.09;101206.56;5037158;28;20041;-89
2021/05/08 12:37:02;;;;;;;3.67;0.40;;;;;;;34.15;13.09;101188.13;5038947;28;20056;-90
2021/05/08 12:40:05;;;;;;;1.60;0.50;;;;;;;33.08;13.79;101180.19;5039695;28;20056;-89
2021/05/08 12:43:31;;;;;;;3.90;0.57;;;;;;;32.81;13.75;101187.66;5034669;28;20044;-89
2021/05/08 12:46:17;;;;;;;0.82;0.40;;;;;;;33.32;13.64;101176.94;5039972;28;20040;-90
2021/05/08 12:52:23;;;;;;;1.20;0.52;;;;;;;32.83;14.76;101168.25;5033250;28;20060;-85
2021/05/08 12:55:22;;;;;;;3.35;0.70;;;;;;;34.29;13.31;101170.59;5039373;28;20064;-87
2021/05/08 12:58:26;;;;;;;1.63;0.60;;;;;;;34.48;12.79;101173.47;5041685;28;20049;-89
2021/05/08 13:01:24;;;;;;;4.18;0.55;;;;;;;33.67;14.17;101178.38;5042248;28;20056;-89
2021/05/08 13:04:09;;;;;;;4.35;0.73;;;;;;;35.48;12.61;101174.19;5036732;28;20052;-88
2021/05/08 13:10:18;;;;;;;1.92;0.68;;;;;;;34.02;13.95;101156.41;5034425;28;20048;-88
2021/05/08 13:13:03;;;;;;;2.17;0.63;;;;;;;37.88;10.61;101165.69;5037887;28;20060;-88
2021/05/08 13:15:53;;;;;;;6.05;0.50;;;;;;;34.59;13.10;101154.78;5042794;28;20053;-87
2021/05/08 13:18:38;;;;;;;1.85;0.50;;;;;;;35.34;13.38;101154.28;5040998;28;20044;-86
2021/05/08 13:21:23;;;;;;;1.38;0.50;;;;;;;35.58;13.02;101152.28;5041101;28;20401;-88
2021/05/08 13:24:08;;;;;;;4.25;0.52;;;;;;;34.34;13.79;101155.06;5021351;28;20056;-87
2021/05/08 13:26:53;;;;;;;2.75;0.32;;;;;;;35.40;13.62;101141.06;5044474;28;20049;-88
2021/05/08 13:29:38;;;;;;;5.78;1.58;;;;;;;35.28;13.61;101131.50;5043967;28;20409;-88
2021/05/08 13:32:23;;;;;;;2.78;0.82;;;;;;;31.30;17.91;101133.06;5042433;28;20048;-88
2021/05/08 13:35:09;;;;;;;2.70;0.88;;;;;;;34.40;14.08;101124.97;5028884;28;20508;-88
2021/05/08 13:37:57;;;;;;;4.45;0.80;;;;;;;31.54;17.71;101119.50;5043820;28;20044;-87
2021/05/08 13:40:41;;;;;;;5.32;0.55;;;;;;;27.56;22.02;101113.72;5027984;28;20068;-85
2021/05/08 13:43:26;;;;;;;2.47;1.17;;;;;;;25.47;25.49;101103.84;5037594;28;20052;-86
2021/05/08 13:46:12;;;;;;;1.08;0.68;;;;;;;25.36;25.83;101108.66;5037237;28;20045;-86
2021/05/08 13:48:57;;;;;;;1.27;0.85;;;;;;;25.35;25.05;101110.66;5042129;28;20048;-87
2021/05/08 13:52:01;;;;;;;3.22;1.40;;;;;;;25.10;26.38;101101.63;5035435;28;20044;-86
2021/05/08 13:54:46;;;;;;;1.45;0.70;;;;;;;24.25;27.13;101104.66;5042349;28;20064;-87
2021/05/08 13:57:31;;;;;;;2.35;0.90;;;;;;;24.13;28.35;101099.44;5042396;28;20056;-87
2021/05/08 14:00:34;;;;;;;2.95;0.70;;;;;;;24.26;27.77;101095.13;5042132;28;20053;-85
2021/05/08 14:03:19;;;;;;;3.17;0.60;;;;;;;23.98;29.25;101103.41;5036332;28;20044;-87
2021/05/08 14:06:04;;;;;;;7.85;0.82;;;;;;;23.44;29.59;101099.78;5042521;28;20045;-89
2021/05/08 14:08:51;;;;;;;1.73;0.93;;;;;;;23.32;31.01;101108.47;5042253;28;20056;-87
2021/05/08 14:11:37;;;;;;;5.68;0.63;;;;;;;23.45;30.45;101095.84;5035442;28;20053;-85
2021/05/08 14:14:23;;;;;;;1.45;0.57;;;;;;;22.78;30.68;101104.69;5039635;28;20045;-86
2021/05/08 14:17:27;;;;;;;4.13;0.57;;;;;;;21.56;32.48;101112.41;5042052;28;20052;-87
2021/05/08 14:20:38;;;;;;;6.95;1.05;;;;;;;21.55;33.08;101099.75;5059990;28;20056;-86